Terminal Aerodrome Forecast
Issued by NWS Central Illinois

Home | Current Version | Previous Version | Text Only | Print | Product List | Glossary On
Versions: 1 2 3 4 5 6 7 8 9 10 11 12 13 14 15 16 17
409
FTUS43 KILX 221137
TAFSPI
TAF
KSPI 221137Z 2212/2312 VRB06KT P6SM SKC
     FM221500 34006KT P6SM SCT250
     FM221900 04005KT P6SM BKN250
     FM230000 09005KT P6SM OVC120=

USA.gov is the U.S. government's official web portal to all federal, state and local government web resources and services.